Time;durP1;ratioP1;P1;durP2;ratioP2;P2;SDS_P1;SDS_P2;PMS_P1;PMS_P2;Temp;Humidity;BMP_temperature;BMP_pressure;BME280_temperature;BME280_humidity;BME280_pressure;Samples;Min_cycle;Max_cycle;Signal;HPM_P1;HPM_P2
2022/09/11 00:01:07;;;;;;;36.72;20.85;;;;;;;16.02;100.00;101244.75;5044836;28;20080;-69
2022/09/11 00:03:34;;;;;;;36.45;20.52;;;;;;;16.02;100.00;101250.34;5046830;28;20067;-72
2022/09/11 00:06:03;;;;;;;37.80;21.60;;;;;;;16.02;100.00;101247.56;5046174;28;20054;-72
2022/09/11 00:08:32;;;;;;;40.28;23.15;;;;;;;15.97;100.00;101244.44;5048111;28;20592;-72
2022/09/11 00:11:10;;;;;;;39.58;23.02;;;;;;;15.95;100.00;101241.28;5046332;28;20532;-70
2022/09/11 00:13:38;;;;;;;32.28;19.65;;;;;;;16.02;100.00;101247.56;5043628;28;20056;-72
2022/09/11 00:16:16;;;;;;;35.05;18.67;;;;;;;15.89;100.00;101248.56;5047166;28;20052;-70
2022/09/11 00:18:43;;;;;;;37.00;19.60;;;;;;;15.81;100.00;101247.88;5049475;28;20052;-70
2022/09/11 00:21:09;;;;;;;35.03;19.85;;;;;;;15.80;100.00;101242.69;5048181;28;20056;-69
2022/09/11 00:23:35;;;;;;;36.17;20.38;;;;;;;15.81;100.00;101249.84;5049179;28;20550;-69
2022/09/11 00:26:03;;;;;;;37.30;20.50;;;;;;;15.80;100.00;101246.28;5047753;28;20091;-73
2022/09/11 00:28:30;;;;;;;41.00;21.88;;;;;;;15.82;100.00;101248.66;5046788;28;20052;-69
2022/09/11 00:31:02;;;;;;;33.67;19.95;;;;;;;15.84;100.00;101254.59;5049153;28;20060;-70
2022/09/11 00:33:29;;;;;;;32.22;18.88;;;;;;;15.69;100.00;101256.03;5046965;28;20060;-70
2022/09/11 00:35:59;;;;;;;34.58;19.02;;;;;;;15.68;100.00;101251.63;5047663;28;20721;-72
2022/09/11 00:38:27;;;;;;;33.17;19.17;;;;;;;15.59;100.00;101251.38;5046000;28;20063;-72
2022/09/11 00:40:59;;;;;;;33.72;19.25;;;;;;;15.61;100.00;101258.09;5042240;28;20044;-69
2022/09/11 00:43:28;;;;;;;31.60;18.17;;;;;;;15.52;100.00;101258.59;5047667;28;20064;-70
2022/09/11 00:45:58;;;;;;;33.00;19.05;;;;;;;15.41;100.00;101251.59;5047448;28;20830;-71
2022/09/11 00:48:33;;;;;;;43.85;19.98;;;;;;;15.40;100.00;101261.94;5045784;28;20055;-71
2022/09/11 00:51:02;;;;;;;41.87;20.63;;;;;;;15.45;100.00;101263.47;5043153;28;20048;-71
2022/09/11 00:53:32;;;;;;;38.53;20.98;;;;;;;15.52;100.00;101273.78;5046250;28;20377;-71
2022/09/11 00:56:02;;;;;;;35.00;20.90;;;;;;;15.52;100.00;101268.19;5044232;28;20049;-71
2022/09/11 00:58:33;;;;;;;31.80;18.92;;;;;;;15.52;100.00;101274.53;5049715;28;20045;-69
2022/09/11 01:01:01;;;;;;;35.35;19.35;;;;;;;15.49;100.00;101280.94;5049218;28;20048;-71
2022/09/11 01:03:28;;;;;;;32.42;19.70;;;;;;;15.39;100.00;101288.25;5046637;28;20129;-71
2022/09/11 01:05:56;;;;;;;34.65;19.73;;;;;;;15.42;100.00;101281.03;5047935;28;20052;-71
2022/09/11 01:08:22;;;;;;;34.45;18.95;;;;;;;15.37;100.00;101287.88;5058905;28;20079;-71
2022/09/11 01:11:12;;;;;;;34.42;18.60;;;;;;;15.24;100.00;101292.38;5063408;28;20044;-70
2022/09/11 01:14:28;;;;;;;37.17;19.85;;;;;;;15.26;100.00;101300.34;5062820;28;20056;-71
2022/09/11 01:17:11;;;;;;;38.42;21.33;;;;;;;15.24;100.00;101295.19;5047571;28;20048;-70
2022/09/11 01:20:15;;;;;;;41.10;21.95;;;;;;;15.25;100.00;101301.53;5062330;28;20075;-71
2022/09/11 01:23:07;;;;;;;40.75;22.42;;;;;;;15.30;100.00;101301.84;5062248;28;20075;-71
2022/09/11 01:26:06;;;;;;;45.35;23.85;;;;;;;15.37;100.00;101301.03;5057783;28;20052;-71
2022/09/11 01:28:48;;;;;;;41.85;23.17;;;;;;;15.36;100.00;101297.44;5058328;28;20049;-70
2022/09/11 01:31:22;;;;;;;38.92;22.80;;;;;;;15.41;100.00;101310.16;5061155;28;20060;-70
2022/09/11 01:34:34;;;;;;;40.95;23.30;;;;;;;15.44;100.00;101312.91;5059297;28;20052;-71
2022/09/11 01:37:15;;;;;;;41.58;22.98;;;;;;;15.51;100.00;101314.81;4994885;28;20089;-70
2022/09/11 01:39:48;;;;;;;40.63;23.48;;;;;;;15.55;100.00;101320.34;5055188;28;20082;-70
2022/09/11 01:42:21;;;;;;;38.17;22.05;;;;;;;15.57;100.00;101320.72;5060881;28;20044;-70
2022/09/11 01:44:56;;;;;;;39.88;22.48;;;;;;;15.61;100.00;101321.47;5061017;28;20472;-70
2022/09/11 01:47:23;;;;;;;40.00;22.83;;;;;;;15.65;100.00;101333.38;5061738;28;20052;-69
2022/09/11 01:49:58;;;;;;;40.78;22.23;;;;;;;15.66;100.00;101330.16;5062365;28;20053;-70
2022/09/11 01:52:29;;;;;;;41.78;21.52;;;;;;;15.61;100.00;101324.25;5064499;28;20053;-69
2022/09/11 01:55:01;;;;;;;37.60;21.80;;;;;;;15.59;100.00;101330.25;5063118;28;20053;-69
2022/09/11 01:57:37;;;;;;;43.75;22.88;;;;;;;15.67;100.00;101333.75;5064666;28;20052;-69
2022/09/11 02:00:10;;;;;;;37.55;21.40;;;;;;;15.70;100.00;101339.28;5060934;28;20087;-71
2022/09/11 02:03:02;;;;;;;37.92;22.42;;;;;;;15.73;100.00;101332.09;5062767;28;20090;-68
2022/09/11 02:05:46;;;;;;;38.22;20.77;;;;;;;15.76;100.00;101334.03;5063018;28;20048;-70
2022/09/11 02:08:25;;;;;;;38.53;21.50;;;;;;;15.72;100.00;101338.88;5063865;28;20114;-69
2022/09/11 02:11:05;;;;;;;37.08;20.48;;;;;;;15.71;100.00;101332.50;5062742;28;20060;-71
2022/09/11 02:13:38;;;;;;;43.30;24.90;;;;;;;15.76;100.00;101322.88;5063428;28;20055;-71
2022/09/11 02:16:15;;;;;;;42.33;23.33;;;;;;;15.76;100.00;101325.66;5065638;28;20048;-71
2022/09/11 02:18:50;;;;;;;43.75;23.75;;;;;;;15.74;100.00;101330.88;5062286;28;20054;-70
2022/09/11 02:21:16;;;;;;;40.85;24.42;;;;;;;15.70;100.00;101324.53;5063502;28;20051;-71
2022/09/11 02:23:44;;;;;;;44.05;23.30;;;;;;;15.75;100.00;101324.06;5062517;28;20048;-70
2022/09/11 02:26:12;;;;;;;45.42;25.83;;;;;;;15.75;100.00;101340.81;5063644;28;20048;-71
2022/09/11 02:28:38;;;;;;;47.50;26.00;;;;;;;15.74;100.00;101328.06;5062407;28;20114;-72
2022/09/11 02:31:06;;;;;;;48.15;24.90;;;;;;;15.78;100.00;101331.59;5062118;28;20056;-71
2022/09/11 02:33:36;;;;;;;46.22;25.70;;;;;;;15.80;100.00;101334.78;5063075;28;20064;-72
2022/09/11 02:36:34;;;;;;;47.92;26.60;;;;;;;15.80;100.00;101340.38;5061956;28;20048;-71
2022/09/11 02:39:33;;;;;;;48.00;25.75;;;;;;;15.85;100.00;101343.47;5067097;28;20049;-70
2022/09/11 02:42:14;;;;;;;54.10;25.00;;;;;;;15.91;100.00;101335.44;5055337;28;20052;-69
2022/09/11 02:44:59;;;;;;;47.25;25.00;;;;;;;15.93;100.00;101342.16;5062109;28;20060;-70
2022/09/11 02:47:42;;;;;;;51.08;25.23;;;;;;;15.93;100.00;101335.81;5059551;28;20515;-72
2022/09/11 02:50:32;;;;;;;45.22;23.67;;;;;;;15.97;100.00;101336.56;5061506;28;20049;-70
2022/09/11 02:53:04;;;;;;;49.15;24.90;;;;;;;16.01;100.00;101334.50;5065770;28;20429;-71
2022/09/11 02:55:40;;;;;;;53.67;27.33;;;;;;;16.00;100.00;101339.28;5063385;28;20055;-69
2022/09/11 02:58:07;;;;;;;52.40;25.58;;;;;;;16.00;100.00;101339.28;5057863;28;20048;-67
2022/09/11 03:00:34;;;;;;;49.60;26.83;;;;;;;15.96;100.00;101340.56;5065585;28;20044;-69
2022/09/11 03:03:00;;;;;;;55.35;27.00;;;;;;;15.97;100.00;101342.94;5061813;28;20509;-72
2022/09/11 03:05:27;;;;;;;54.60;26.83;;;;;;;15.96;100.00;101346.16;5062245;28;20045;-67
2022/09/11 03:07:54;;;;;;;63.75;29.85;;;;;;;16.01;100.00;101348.44;5062881;28;20067;-69
2022/09/11 03:10:21;;;;;;;63.35;30.95;;;;;;;16.01;100.00;101345.66;5059174;28;20647;-72
2022/09/11 03:12:47;;;;;;;68.10;30.95;;;;;;;16.06;100.00;101345.97;5060445;28;20056;-70
2022/09/11 03:15:15;;;;;;;64.85;29.35;;;;;;;16.10;100.00;101343.16;5066972;28;20154;-70
2022/09/11 03:17:42;;;;;;;63.65;28.48;;;;;;;16.11;100.00;101353.91;5067432;28;20098;-69
2022/09/11 03:20:08;;;;;;;69.93;32.85;;;;;;;16.11;100.00;101355.91;5073347;28;20060;-70
2022/09/11 03:22:35;;;;;;;114.22;38.13;;;;;;;16.14;100.00;101349.47;5062142;28;20139;-70
2022/09/11 03:25:02;;;;;;;108.65;36.60;;;;;;;16.16;100.00;101353.44;5062172;28;20058;-70
2022/09/11 03:27:29;;;;;;;115.22;38.92;;;;;;;16.18;100.00;101355.81;5062966;28;20055;-68
2022/09/11 03:29:55;;;;;;;96.50;36.80;;;;;;;16.21;100.00;101360.53;5062650;28;20044;-73
2022/09/11 03:32:22;;;;;;;117.72;37.55;;;;;;;16.23;100.00;101358.91;5058796;28;20094;-69
2022/09/11 03:34:48;;;;;;;108.13;37.55;;;;;;;16.25;100.00;101367.66;5060080;28;20045;-69
2022/09/11 03:37:15;;;;;;;128.32;37.88;;;;;;;16.19;100.00;101354.56;5066264;28;20044;-70
2022/09/11 03:39:42;;;;;;;87.97;38.05;;;;;;;16.25;100.00;101366.88;5062667;28;20045;-69
2022/09/11 03:42:11;;;;;;;89.07;35.47;;;;;;;16.26;100.00;101372.03;5060720;28;20040;-69
2022/09/11 03:44:38;;;;;;;98.80;38.70;;;;;;;16.29;100.00;101373.19;5058942;28;20057;-68
2022/09/11 03:47:04;;;;;;;93.90;33.75;;;;;;;16.28;100.00;101383.59;5062417;28;20044;-70
2022/09/11 03:49:31;;;;;;;107.50;35.63;;;;;;;16.28;100.00;101382.78;5066279;28;20065;-71
2022/09/11 03:51:58;;;;;;;101.20;37.97;;;;;;;16.31;100.00;101384.75;5065569;28;20497;-70
2022/09/11 03:54:24;;;;;;;149.43;37.97;;;;;;;16.28;100.00;101382.78;5061253;28;20094;-70
2022/09/11 03:56:51;;;;;;;109.78;36.53;;;;;;;16.25;100.00;101380.81;5058954;28;20460;-70
2022/09/11 03:59:19;;;;;;;91.75;33.85;;;;;;;16.27;100.00;101392.38;5061676;28;20106;-70
2022/09/11 04:01:48;;;;;;;84.78;36.47;;;;;;;16.30;100.00;101391.53;5061850;28;20409;-70
2022/09/11 04:04:16;;;;;;;90.55;35.88;;;;;;;16.32;100.00;101394.69;5061154;28;20045;-70
2022/09/11 04:06:43;;;;;;;98.80;35.25;;;;;;;16.32;100.00;101395.50;5061983;28;20052;-70
2022/09/11 04:09:10;;;;;;;96.55;35.03;;;;;;;16.27;100.00;101403.56;5065900;28;20044;-70
2022/09/11 04:11:39;;;;;;;123.55;36.60;;;;;;;16.24;100.00;101390.44;5060766;28;20055;-70
2022/09/11 04:14:06;;;;;;;104.32;35.42;;;;;;;16.26;100.00;101399.19;5062168;28;20457;-70
2022/09/11 04:16:34;;;;;;;109.40;36.33;;;;;;;16.28;100.00;101400.34;5065532;28;20044;-69
2022/09/11 04:19:01;;;;;;;179.77;37.35;;;;;;;16.23;100.00;101398.00;5061108;28;20079;-70
2022/09/11 04:21:28;;;;;;;165.30;35.30;;;;;;;16.18;100.00;101412.44;5056515;28;20590;-70
2022/09/11 04:23:55;;;;;;;159.80;36.72;;;;;;;16.15;100.00;101410.47;5059777;28;20060;-70
2022/09/11 04:26:24;;;;;;;165.23;35.80;;;;;;;16.13;100.00;101412.13;5061515;28;20123;-70
2022/09/11 04:28:50;;;;;;;162.18;37.38;;;;;;;16.12;100.00;101410.50;5056898;28;20040;-69
2022/09/11 04:31:19;;;;;;;251.25;42.42;;;;;;;16.17;100.00;101408.06;5059901;28;20044;-70
2022/09/11 04:33:46;;;;;;;182.57;37.92;;;;;;;16.21;100.00;101410.81;5061369;28;20044;-69
2022/09/11 04:36:17;;;;;;;141.73;32.47;;;;;;;16.13;100.00;101421.25;5065684;28;20075;-69
2022/09/11 04:38:45;;;;;;;136.68;37.95;;;;;;;16.16;100.00;101423.22;5060583;28;20056;-69
2022/09/11 04:41:13;;;;;;;139.50;35.53;;;;;;;16.14;100.00;101420.06;5060341;28;20041;-70
2022/09/11 04:43:40;;;;;;;135.40;34.90;;;;;;;16.06;100.00;101420.59;5064254;28;20065;-70
2022/09/11 04:46:11;;;;;;;139.95;35.97;;;;;;;16.07;100.00;101416.56;5063176;28;20045;-68
2022/09/11 04:48:50;;;;;;;95.95;32.15;;;;;;;16.05;100.00;101424.56;5064376;28;20048;-70
2022/09/11 04:51:29;;;;;;;88.35;33.65;;;;;;;16.07;100.00;101422.97;5065479;28;20040;-70
2022/09/11 04:53:56;;;;;;;92.70;34.20;;;;;;;16.13;100.00;101423.28;5065050;28;20049;-70
2022/09/11 04:56:25;;;;;;;85.95;34.38;;;;;;;16.15;100.00;101423.63;5065754;28;20052;-69
2022/09/11 04:58:54;;;;;;;110.32;34.40;;;;;;;16.13;100.00;101417.69;5061660;28;20090;-70
2022/09/11 05:01:22;;;;;;;94.88;33.80;;;;;;;16.14;100.00;101417.28;5061386;28;20040;-69
2022/09/11 05:03:49;;;;;;;92.45;34.60;;;;;;;16.14;100.00;101422.06;5060784;28;20098;-69
2022/09/11 05:06:15;;;;;;;84.25;35.38;;;;;;;16.13;100.00;101420.50;5059342;28;20131;-70
2022/09/11 05:08:43;;;;;;;140.15;35.38;;;;;;;16.05;100.00;101425.38;5065563;28;20049;-70
2022/09/11 05:11:12;;;;;;;104.72;31.60;;;;;;;16.01;100.00;101434.97;5061547;28;20048;-69
2022/09/11 05:13:39;;;;;;;112.10;30.30;;;;;;;15.94;100.00;101430.28;5065334;28;20048;-67
2022/09/11 05:16:09;;;;;;;145.10;33.75;;;;;;;15.95;100.00;101431.06;5062699;28;20048;-69
2022/09/11 05:18:38;;;;;;;140.20;34.35;;;;;;;16.00;100.00;101441.78;5062932;28;20049;-70
2022/09/11 05:21:11;;;;;;;86.35;34.10;;;;;;;16.03;100.00;101440.94;5065299;28;20071;-70
2022/09/11 05:23:38;;;;;;;79.70;31.30;;;;;;;16.00;100.00;101450.16;5065587;28;20131;-69
2022/09/11 05:26:06;;;;;;;109.95;34.40;;;;;;;15.99;100.00;101454.94;5062803;28;20067;-70
2022/09/11 05:28:33;;;;;;;86.28;32.83;;;;;;;16.01;100.00;101451.72;5065155;28;20049;-67
2022/09/11 05:31:01;;;;;;;96.40;33.55;;;;;;;16.05;100.00;101456.06;5067988;28;20036;-70
2022/09/11 05:33:27;;;;;;;85.88;32.95;;;;;;;16.09;100.00;101461.59;5066275;28;20083;-71
2022/09/11 05:36:03;;;;;;;104.28;33.88;;;;;;;16.10;100.00;101454.81;5069529;28;20048;-71
2022/09/11 05:38:29;;;;;;;92.70;35.28;;;;;;;16.16;100.00;101465.09;5067592;28;20738;-70
2022/09/11 05:40:56;;;;;;;77.15;33.08;;;;;;;16.20;100.00;101471.44;5069346;28;20049;-68
2022/09/11 05:43:22;;;;;;;77.47;31.85;;;;;;;16.22;100.00;101471.00;5068552;28;20059;-70
2022/09/11 05:45:56;;;;;;;69.97;30.67;;;;;;;16.25;100.00;101470.19;5068761;28;20059;-70
2022/09/11 05:48:26;;;;;;;64.43;29.33;;;;;;;16.26;100.00;101466.19;5069182;28;20618;-68
2022/09/11 05:51:00;;;;;;;70.53;29.95;;;;;;;16.27;100.00;101478.94;5069168;28;20859;-70
2022/09/11 05:53:30;;;;;;;69.77;31.80;;;;;;;16.29;100.00;101482.91;5068458;28;20386;-69
2022/09/11 05:55:59;;;;;;;67.22;29.95;;;;;;;16.31;100.00;101482.47;5068621;28;20290;-70
2022/09/11 05:58:31;;;;;;;73.88;32.47;;;;;;;16.31;100.00;101485.28;5062105;28;20052;-70
2022/09/11 06:01:07;;;;;;;71.90;32.00;;;;;;;16.32;100.00;101481.25;5068619;28;20048;-68
2022/09/11 06:03:35;;;;;;;69.88;33.60;;;;;;;16.36;100.00;101487.59;5069251;28;20120;-69
2022/09/11 06:06:04;;;;;;;66.43;32.05;;;;;;;16.40;100.00;101474.41;5057762;28;20049;-71
2022/09/11 06:08:33;;;;;;;61.55;28.35;;;;;;;16.42;100.00;101488.72;5069570;28;20045;-71
2022/09/11 06:11:01;;;;;;;54.53;27.52;;;;;;;16.43;100.00;101485.53;5067508;28;20378;-69
2022/09/11 06:13:30;;;;;;;60.60;27.50;;;;;;;16.45;100.00;101493.50;5068921;28;20057;-71
2022/09/11 06:15:57;;;;;;;64.60;30.60;;;;;;;16.45;100.00;101501.88;5069788;28;20602;-69
2022/09/11 06:18:23;;;;;;;56.50;26.05;;;;;;;16.48;100.00;101503.84;5068343;28;20052;-70
2022/09/11 06:20:56;;;;;;;53.67;27.40;;;;;;;16.52;100.00;101510.97;5069448;28;20052;-70
2022/09/11 06:23:22;;;;;;;55.53;26.55;;;;;;;16.54;100.00;101513.34;5064497;28;20052;-70
2022/09/11 06:25:49;;;;;;;50.75;26.50;;;;;;;16.54;100.00;101513.34;5069126;28;20462;-70
2022/09/11 06:28:15;;;;;;;53.75;25.48;;;;;;;16.57;100.00;101518.88;5067529;28;20066;-70
2022/09/11 06:30:42;;;;;;;54.08;27.55;;;;;;;16.59;100.00;101521.25;5065647;28;20055;-70
2022/09/11 06:33:09;;;;;;;48.47;25.48;;;;;;;16.56;100.00;101522.88;5068790;28;20079;-71
2022/09/11 06:35:35;;;;;;;48.47;25.73;;;;;;;16.60;100.00;101520.84;5069872;28;20492;-69
2022/09/11 06:38:02;;;;;;;53.92;23.88;;;;;;;16.59;100.00;101524.84;5068109;28;20044;-69
2022/09/11 06:40:28;;;;;;;49.15;26.13;;;;;;;16.59;100.00;101529.63;5065930;28;20044;-70
2022/09/11 06:42:55;;;;;;;47.03;23.38;;;;;;;16.46;100.00;101528.59;5050509;28;20502;-71
2022/09/11 06:45:21;;;;;;;52.63;24.08;;;;;;;16.38;100.00;101527.09;5065796;28;20052;-70
2022/09/11 06:47:47;;;;;;;50.92;26.42;;;;;;;16.38;100.00;101527.09;5067393;28;20048;-70
2022/09/11 06:50:14;;;;;;;53.33;25.58;;;;;;;16.40;100.00;101525.44;5064701;28;20106;-68
2022/09/11 06:52:41;;;;;;;58.40;24.27;;;;;;;16.38;100.00;101532.66;5064734;28;20122;-68
2022/09/11 06:55:12;;;;;;;65.00;24.77;;;;;;;16.28;100.00;101523.22;5067005;28;20056;-68
2022/09/11 06:57:40;;;;;;;70.05;25.42;;;;;;;16.33;100.00;101525.53;5064132;28;20044;-69
2022/09/11 07:00:09;;;;;;;68.47;26.90;;;;;;;16.31;100.00;101529.97;5067302;28;20821;-68
2022/09/11 07:02:35;;;;;;;59.78;26.27;;;;;;;16.31;100.00;101527.16;5062161;28;20064;-68
2022/09/11 07:05:02;;;;;;;61.33;26.63;;;;;;;16.37;100.00;101529.06;5062456;28;20049;-68
2022/09/11 07:07:29;;;;;;;55.35;27.77;;;;;;;16.49;100.00;101527.75;5063673;28;20059;-67
2022/09/11 07:09:56;;;;;;;61.55;30.10;;;;;;;16.54;100.00;101535.69;5061014;28;20044;-68
2022/09/11 07:12:22;;;;;;;62.45;28.75;;;;;;;16.53;100.00;101536.88;5063586;28;20508;-68
2022/09/11 07:14:49;;;;;;;61.67;30.25;;;;;;;16.57;100.00;101530.06;5065379;28;20048;-67
2022/09/11 07:17:15;;;;;;;55.45;28.17;;;;;;;16.58;100.00;101533.66;5062611;28;20540;-68
2022/09/11 07:19:42;;;;;;;58.88;27.83;;;;;;;16.62;100.00;101535.19;5063293;28;20052;-68
2022/09/11 07:22:08;;;;;;;61.13;29.38;;;;;;;16.70;100.00;101538.66;5060884;28;20405;-67
2022/09/11 07:24:36;;;;;;;54.65;25.75;;;;;;;16.75;100.00;101532.63;5065728;28;20234;-68
2022/09/11 07:27:02;;;;;;;48.80;23.35;;;;;;;16.82;100.00;101536.13;5066250;28;20053;-68
2022/09/11 07:29:30;;;;;;;47.92;24.05;;;;;;;16.85;100.00;101545.66;5065651;28;20052;-67
2022/09/11 07:31:57;;;;;;;54.33;27.13;;;;;;;16.85;100.00;101537.28;5065006;28;20106;-68
2022/09/11 07:34:24;;;;;;;54.25;29.17;;;;;;;16.90;100.00;101536.78;5067729;28;20066;-68
2022/09/11 07:36:51;;;;;;;54.60;26.27;;;;;;;16.90;100.00;101542.38;5065718;28;20467;-68
2022/09/11 07:39:18;;;;;;;52.08;24.83;;;;;;;16.97;100.00;101559.06;5064804;28;20048;-68
2022/09/11 07:41:44;;;;;;;46.92;24.58;;;;;;;17.00;100.00;101555.44;5066813;28;20052;-68
2022/09/11 07:44:11;;;;;;;52.30;25.55;;;;;;;17.01;100.00;101549.41;5064715;28;20048;-68
2022/09/11 07:46:40;;;;;;;53.40;27.42;;;;;;;17.02;100.00;101559.41;5062929;28;20056;-67
2022/09/11 07:49:08;;;;;;;52.40;26.20;;;;;;;17.04;100.00;101562.56;5064522;28;20501;-67
2022/09/11 07:51:36;;;;;;;46.45;22.73;;;;;;;17.03;100.00;101560.19;5067536;28;20052;-68
2022/09/11 07:54:03;;;;;;;49.47;25.05;;;;;;;17.06;100.00;101564.94;5067818;28;20048;-68
2022/09/11 07:56:30;;;;;;;49.13;24.58;;;;;;;17.04;100.00;101568.16;5068489;28;20048;-67
2022/09/11 07:58:56;;;;;;;51.78;23.90;;;;;;;17.05;100.00;101560.56;5060831;28;20420;-67
2022/09/11 08:01:25;;;;;;;49.88;24.50;;;;;;;17.06;100.00;101567.72;5062945;28;20495;-68
2022/09/11 08:03:54;;;;;;;45.05;23.02;;;;;;;17.11;100.00;101564.47;5060974;28;20147;-68
2022/09/11 08:06:22;;;;;;;55.17;26.10;;;;;;;17.16;100.00;101573.19;5062641;28;20052;-66
2022/09/11 08:08:54;;;;;;;47.17;24.65;;;;;;;17.09;100.00;101573.28;5064936;28;20056;-68
2022/09/11 08:11:21;;;;;;;48.10;24.02;;;;;;;17.06;100.00;101564.94;5062841;28;20725;-67
2022/09/11 08:13:52;;;;;;;47.78;20.65;;;;;;;17.09;100.00;101575.28;5066343;28;20055;-67
2022/09/11 08:16:21;;;;;;;53.10;25.42;;;;;;;17.13;100.00;101578.81;5057625;28;20516;-68
2022/09/11 08:18:48;;;;;;;47.33;23.98;;;;;;;17.16;100.00;101578.78;5063125;28;20496;-67
2022/09/11 08:21:15;;;;;;;49.17;23.70;;;;;;;17.18;100.00;101586.75;5064166;28;20044;-67
2022/09/11 08:23:43;;;;;;;44.75;21.73;;;;;;;17.19;100.00;101588.31;5064978;28;20479;-67
2022/09/11 08:26:20;;;;;;;43.17;23.05;;;;;;;17.19;100.00;101591.13;5063319;28;20052;-67
2022/09/11 08:28:49;;;;;;;43.72;22.08;;;;;;;17.22;100.00;101593.06;5065717;28;20048;-67
2022/09/11 08:31:17;;;;;;;42.60;21.88;;;;;;;17.23;100.00;101601.03;5063635;28;20272;-67
2022/09/11 08:33:44;;;;;;;41.05;22.63;;;;;;;17.27;100.00;101598.19;5062311;28;20516;-67
2022/09/11 08:36:15;;;;;;;42.33;23.40;;;;;;;17.25;100.00;101604.19;5064297;28;20571;-68
2022/09/11 08:38:43;;;;;;;43.22;22.67;;;;;;;17.26;100.00;101610.59;5063128;28;20052;-65
2022/09/11 08:41:31;;;;;;;50.13;24.10;;;;;;;17.29;100.00;101616.16;5060933;28;20091;-67
2022/09/11 08:44:10;;;;;;;42.70;22.20;;;;;;;17.18;100.00;101615.47;5058994;28;20099;-67
2022/09/11 08:46:40;;;;;;;54.80;25.30;;;;;;;17.21;100.00;101614.66;5063237;28;20057;-68
2022/09/11 08:49:33;;;;;;;45.38;24.90;;;;;;;17.20;100.00;101623.44;5065434;28;20105;-67
2022/09/11 08:52:04;;;;;;;40.72;21.27;;;;;;;17.27;100.00;101623.34;5063301;28;20048;-66
2022/09/11 08:54:35;;;;;;;45.60;23.33;;;;;;;17.36;100.00;101629.22;5063898;28;20437;-69
2022/09/11 08:57:42;;;;;;;40.90;23.27;;;;;;;17.40;100.00;101627.97;5066896;28;20053;-67
2022/09/11 09:00:20;;;;;;;47.97;22.95;;;;;;;17.43;100.00;101631.94;5067253;28;20048;-68
2022/09/11 09:02:46;;;;;;;47.13;24.85;;;;;;;17.51;100.00;101639.81;5061695;28;20044;-68
2022/09/11 09:05:42;;;;;;;46.83;24.67;;;;;;;17.58;100.00;101644.50;5066167;28;20067;-66
2022/09/11 09:08:26;;;;;;;46.97;24.83;;;;;;;17.63;100.00;101647.63;5066940;28;20366;-68
2022/09/11 09:11:12;;;;;;;40.42;20.98;;;;;;;17.68;100.00;101637.94;5061038;28;20045;-69
2022/09/11 09:13:52;;;;;;;43.83;23.70;;;;;;;17.73;100.00;101637.47;5061798;28;20405;-67
2022/09/11 09:16:34;;;;;;;42.70;22.63;;;;;;;17.82;100.00;101634.94;5062468;28;20056;-68
2022/09/11 09:19:03;;;;;;;39.80;22.17;;;;;;;17.82;100.00;101635.72;5065736;28;20045;-68
2022/09/11 09:21:54;;;;;;;48.85;25.15;;;;;;;17.76;100.00;101639.44;5066957;28;20040;-66
2022/09/11 09:24:22;;;;;;;42.92;22.27;;;;;;;17.77;100.00;101641.81;5066332;28;20044;-67
2022/09/11 09:26:51;;;;;;;40.08;22.65;;;;;;;17.80;100.00;101643.78;5069461;28;20056;-68
2022/09/11 09:29:25;;;;;;;36.78;20.88;;;;;;;17.82;100.00;101640.56;5068771;28;20074;-68
2022/09/11 09:31:57;;;;;;;39.22;20.80;;;;;;;17.80;100.00;101643.78;5067450;28;20052;-67
2022/09/11 09:34:26;;;;;;;39.97;22.77;;;;;;;17.89;100.00;101654.44;5067419;28;20049;-67
2022/09/11 09:37:11;;;;;;;39.58;22.08;;;;;;;17.94;100.00;101645.53;5070265;28;20075;-68
2022/09/11 09:39:38;;;;;;;39.92;21.40;;;;;;;18.03;100.00;101645.78;5065300;28;20059;-67
2022/09/11 09:42:11;;;;;;;36.15;18.33;;;;;;;18.07;100.00;101648.50;5062534;28;20044;-68
2022/09/11 09:45:00;;;;;;;38.20;21.05;;;;;;;18.12;100.00;101648.03;5056312;28;20777;-66
2022/09/11 09:47:28;;;;;;;44.03;21.10;;;;;;;18.12;100.00;101648.81;5058721;28;20059;-68
2022/09/11 09:49:57;;;;;;;40.00;22.30;;;;;;;18.18;100.00;101649.13;5053206;28;20048;-67
2022/09/11 09:52:26;;;;;;;40.83;22.83;;;;;;;18.26;100.00;101651.38;5062287;28;20048;-68
2022/09/11 09:55:01;;;;;;;40.97;21.23;;;;;;;18.20;100.00;101641.88;5060556;28;20106;-66
2022/09/11 09:57:33;;;;;;;;;;;;;;;18.31;100.00;101653.69;5062184;28;20052;-68
2022/09/11 10:00:16;;;;;;;42.42;24.17;;;;;;;18.30;100.00;101656.91;5064271;28;20411;-68
2022/09/11 10:02:53;;;;;;;45.88;23.17;;;;;;;18.27;100.00;101658.56;5047541;28;20753;-66
2022/09/11 10:05:23;;;;;;;44.88;26.15;;;;;;;18.22;100.00;101650.66;5040702;28;20052;-68
2022/09/11 10:07:52;;;;;;;48.17;27.45;;;;;;;18.28;100.00;101651.75;5050177;28;20048;-69
2022/09/11 10:10:27;;;;;;;50.05;29.30;;;;;;;18.36;100.00;101650.41;5051307;28;20765;-68
2022/09/11 10:12:56;;;;;;;46.95;25.83;;;;;;;18.47;100.00;101642.63;5049730;28;20052;-68
2022/09/11 10:15:42;;;;;;;47.45;26.17;;;;;;;18.49;100.00;101639.41;5047886;28;20067;-66
2022/09/11 10:18:33;;;;;;;43.45;26.17;;;;;;;18.66;100.00;101641.06;5051161;28;20079;-69
2022/09/11 10:21:12;;;;;;;47.83;26.77;;;;;;;18.78;100.00;101644.00;5048160;28;20810;-68
2022/09/11 10:24:21;;;;;;;43.88;24.10;;;;;;;18.93;100.00;101650.91;5051049;28;20056;-67
2022/09/11 10:26:52;;;;;;;46.55;25.05;;;;;;;18.98;100.00;101656.03;5039034;28;20495;-68
2022/09/11 10:29:28;;;;;;;45.95;25.88;;;;;;;18.97;100.00;101648.81;5051240;28;20343;-68
2022/09/11 10:32:01;;;;;;;45.72;28.60;;;;;;;19.07;100.00;101650.59;5051396;28;20090;-68
2022/09/11 10:34:39;;;;;;;47.60;28.08;;;;;;;19.22;100.00;101648.28;5051714;28;20048;-69
2022/09/11 10:37:12;;;;;;;49.33;27.52;;;;;;;19.04;100.00;101654.25;5051106;28;20267;-68
2022/09/11 10:39:42;;;;;;;51.22;29.13;;;;;;;19.07;100.00;101652.63;5046981;28;20258;-68
2022/09/11 10:42:21;;;;;;;51.03;30.15;;;;;;;19.10;100.00;101651.78;5049772;28;20053;-68
2022/09/11 10:44:50;;;;;;;48.67;28.48;;;;;;;19.14;100.00;101653.25;5052441;28;20063;-69
2022/09/11 10:47:20;;;;;;;51.70;33.00;;;;;;;19.22;100.00;101654.69;5052121;28;20169;-68
2022/09/11 10:49:48;;;;;;;53.72;32.10;;;;;;;19.23;100.00;101658.28;5052660;28;20064;-68
2022/09/11 10:52:14;;;;;;;54.05;32.97;;;;;;;19.00;100.00;101661.97;5048894;28;20456;-68
2022/09/11 10:55:08;;;;;;;52.05;32.33;;;;;;;18.98;100.00;101658.81;5050042;28;20079;-68
2022/09/11 10:58:07;;;;;;;49.78;30.65;;;;;;;19.12;100.00;101664.13;5044856;28;20121;-67
2022/09/11 11:00:34;;;;;;;48.85;31.67;;;;;;;19.28;100.00;101667.03;5025995;28;20094;-67
2022/09/11 11:03:08;;;;;;;46.60;27.92;;;;;;;19.31;100.00;101657.72;5046957;28;20075;-69
2022/09/11 11:05:52;;;;;;;46.38;28.00;;;;;;;19.42;100.00;101658.28;5051100;28;20051;-69
2022/09/11 11:08:24;;;;;;;45.63;27.08;;;;;;;19.55;100.00;101658.41;5051115;28;20541;-69
2022/09/11 11:11:19;;;;;;;43.38;27.75;;;;;;;19.62;100.00;101664.66;5052527;28;20060;-68
2022/09/11 11:13:49;;;;;;;45.92;25.88;;;;;;;19.70;100.00;101654.81;5056831;28;20121;-69
2022/09/11 11:16:27;;;;;;;44.33;26.33;;;;;;;19.75;100.00;101661.94;5046543;28;20049;-68
2022/09/11 11:19:19;;;;;;;50.30;29.02;;;;;;;19.76;100.00;101661.50;5050321;28;20621;-69
2022/09/11 11:22:13;;;;;;;43.67;25.60;;;;;;;19.76;100.00;101657.91;5051540;28;20048;-68
2022/09/11 11:24:46;;;;;;;43.47;25.48;;;;;;;19.76;100.00;101655.88;5050563;28;21520;-65